• Join FlightAware (Why Join?)
  • Login
  • US Flag 
05:56PM EDT


 

Airport Tracker/Info


-or-


 

Live Flight TrackerFlight Track Log ✈ MAS2633 ✈ 24-Apr-2013 ✈ WBKL / LBU - WMKK / KUL

Flight Track Log - Related Links

Times and Time Zones

All times are in EDT time to prevent confusion due to time zone crossing. See the MAS2633 flight status page for this flight to view local times or setup timezone preferences in your user account.

Time Position Orientation Groundspeed Altitude Reporting Facility
EDT Latitude Longitude Course Direction KTS MPH feet Rate Location/Type
08:09PM 5.3400 115.1720 276° West 205 236 2,400  Level FlightAware
08:14PM 5.3680 114.7020 273° West 372 428 12,300 420 Climbing FlightAware
08:16PM 5.3271 114.4892 259° West  Level Estimated
08:17PM 5.3053 114.3762 259° West  Level Estimated
08:18PM 5.2835 114.2633 259° West  Level Estimated
08:19PM 5.2617 114.1503 259° West  Level Estimated
08:20PM 5.2399 114.0374 259° West  Level Estimated
08:21PM 5.2180 113.9244 259° West  Level Estimated
08:22PM 5.1961 113.8115 259° West  Level Estimated
08:23PM 5.1742 113.6985 259° West  Level Estimated
08:24PM 5.1523 113.5856 259° West  Level Estimated
08:25PM 5.1304 113.4727 259° West  Level Estimated
08:26PM 5.1084 113.3598 259° West  Level Estimated
08:27PM 5.0865 113.2469 259° West  Level Estimated
08:28PM 5.0645 113.1340 259° West  Level Estimated
08:29PM 5.0425 113.0211 259° West  Level Estimated
08:30PM 5.0205 112.9083 259° West  Level Estimated
08:31PM 4.9984 112.7954 259° West  Level Estimated
08:32PM 4.9763 112.6825 259° West  Level Estimated
08:33PM 4.9542 112.5697 259° West  Level Estimated
08:34PM 4.9321 112.4568 259° West  Level Estimated
08:35PM 4.9100 112.3440 259° West  Level Estimated
08:36PM 4.8878 112.2312 259° West  Level Estimated
08:37PM 4.8657 112.1184 259° West  Level Estimated
08:38PM 4.8435 112.0055 259° West  Level Estimated
08:39PM 4.8213 111.8927 259° West  Level Estimated
08:40PM 4.7991 111.7799 259° West  Level Estimated
08:41PM 4.7768 111.6672 259° West  Level Estimated
08:42PM 4.7546 111.5544 259° West  Level Estimated
08:43PM 4.7323 111.4416 259° West  Level Estimated
08:44PM 4.7100 111.3288 259° West  Level Estimated
08:45PM 4.6877 111.2161 259° West  Level Estimated
08:46PM 4.6681 111.1173 259° West  Level Estimated
08:47PM 4.6486 111.0185 259° West  Level Estimated
08:48PM 4.6290 110.9198 259° West  Level Estimated
08:49PM 4.6094 110.8210 259° West  Level Estimated
08:50PM 4.5897 110.7223 259° West  Level Estimated
08:51PM 4.5701 110.6236 259° West  Level Estimated
08:52PM 4.5505 110.5248 259° West  Level Estimated
08:53PM 4.5308 110.4261 259° West  Level Estimated
08:54PM 4.5111 110.3274 259° West  Level Estimated
08:55PM 4.4915 110.2287 259° West  Level Estimated
08:56PM 4.4718 110.1300 259° West  Level Estimated
08:57PM 4.4521 110.0313 259° West  Level Estimated
08:58PM 4.4323 109.9326 259° West  Level Estimated
08:59PM 4.4126 109.8339 259° West  Level Estimated
09:00PM 4.3928 109.7352 259° West  Level Estimated
09:01PM 4.3731 109.6365 259° West  Level Estimated
09:02PM 4.3533 109.5378 259° West  Level Estimated
09:03PM 4.3335 109.4391 259° West  Level Estimated
09:04PM 4.3137 109.3405 259° West  Level Estimated
09:05PM 4.2939 109.2418 259° West  Level Estimated
09:06PM 4.2741 109.1432 259° West  Level Estimated
09:07PM 4.2542 109.0445 259° West  Level Estimated
09:08PM 4.2344 108.9459 259° West  Level Estimated
09:09PM 4.2145 108.8472 259° West  Level Estimated
09:10PM 4.1947 108.7486 259° West  Level Estimated
09:11PM 4.1748 108.6499 259° West  Level Estimated
09:12PM 4.1549 108.5513 259° West  Level Estimated
09:13PM 4.1350 108.4527 259° West  Level Estimated
09:14PM 4.1150 108.3541 259° West  Level Estimated
09:15PM 4.0951 108.2555 259° West  Level Estimated
09:16PM 4.0751 108.1569 259° West  Level Estimated
09:17PM 4.0552 108.0583 259° West  Level Estimated
09:18PM 4.0352 107.9597 259° West  Level Estimated
09:19PM 4.0152 107.8611 259° West  Level Estimated
09:20PM 3.9952 107.7625 259° West  Level Estimated
09:21PM 3.9752 107.6639 259° West  Level Estimated
09:22PM 3.9552 107.5653 258° West  Level Estimated
09:23PM 3.9352 107.4668 258° West  Level Estimated
09:24PM 3.9151 107.3682 258° West  Level Estimated
09:24PM 3.4980 105.6870 258° West 489 563 38,000  Level FlightAware
09:25PM 3.8951 107.2696 258° West  Level Estimated
09:25PM 3.4900 105.6000 265° West 484 557 38,000  Level FlightAware
09:25PM 3.4750 105.5130 260° West 482 555 38,000  Level FlightAware
09:26PM 3.4590 105.4100 261° West 482 555 38,000  Level FlightAware
09:27PM 3.4450 105.3220 261° West 482 555 38,000  Level FlightAware
09:27PM 3.4290 105.2260 261° West 482 555 38,000  Level FlightAware
09:28PM 3.4150 105.1370 261° West 480 552 38,000  Level FlightAware
09:29PM 3.3990 105.0370 261° West 479 551 38,000  Level FlightAware
09:29PM 3.3850 104.9480 261° West 478 550 38,000  Level FlightAware
09:30PM 3.3710 104.8660 260° West 478 550 38,000  Level FlightAware
09:31PM 3.3560 104.7680 261° West 477 549 38,000  Level FlightAware
09:32PM 3.3390 104.6650 261° West 477 549 38,000  Level FlightAware
09:32PM 3.3250 104.5780 261° West 475 547 38,000  Level FlightAware
09:33PM 3.3110 104.4910 261° West 476 548 38,000  Level FlightAware
09:34PM 3.2970 104.4050 261° West 476 548 38,000  Level FlightAware
09:34PM 3.2810 104.3080 261° West 480 552 38,000  Level FlightAware
09:35PM 3.2680 104.2220 261° West 482 555 38,000  Level FlightAware
09:36PM 3.2550 104.1410 261° West 484 557 38,000  Level FlightAware
09:36PM 3.2410 104.0600 260° West 483 556 38,000  Level FlightAware
09:37PM 3.2250 103.9580 261° West 482 555 38,000  Level FlightAware
09:38PM 3.2100 103.8670 261° West 480 552 38,000  Level FlightAware
09:39PM 3.1960 103.7780 261° West 479 551 38,000  Level FlightAware
09:39PM 3.1830 103.6980 261° West 478 550 38,000 -780 Level FlightAware
09:40PM 3.1670 103.5970 261° West 468 539 36,900 -1,260 Descending FlightAware
09:41PM 3.1480 103.4770 261° West 476 548 35,800 -2,040 Descending FlightAware
09:42PM 3.1360 103.3820 263° West 491 565 33,700 -2,580 Descending FlightAware
09:42PM 3.1240 103.2890 263° West 483 556 32,200 -1,680 Descending FlightAware
09:43PM 3.1120 103.2000 262° West 457 526 31,400 -1,740 Descending FlightAware
09:44PM 3.0990 103.1070 262° West 441 507 29,800 -2,100 Descending FlightAware
09:44PM 3.0880 103.0290 262° West 427 491 28,500 -2,160 Descending FlightAware
09:45PM 3.0790 102.9570 263° West 417 480 27,100 -2,160 Descending FlightAware
09:46PM 3.0680 102.8710 263° West 404 465 25,500 -2,040 Descending FlightAware
09:46PM 3.0570 102.7910 262° West 399 459 24,100 -1,080 Descending FlightAware
09:47PM 3.0470 102.7180 262° West 361 415 24,000 -480 Descending FlightAware
09:48PM 3.0380 102.6500 262° West 345 397 23,500 -2,040 Descending FlightAware
09:49PM 3.0260 102.5590 262° West 376 433 20,800 -2,640 Descending FlightAware
09:50PM 3.0160 102.4890 262° West 370 426 19,100 -2,520 Descending FlightAware
09:50PM 3.0020 102.4640 241° Southwest 366 421 18,500 -2,340 Descending FlightAware
09:50PM 2.9560 102.4150 227° Southwest 358 412 17,000 -2,100 Descending FlightAware
09:51PM 2.9100 102.3690 225° Southwest 350 403 15,700 -1,860 Descending FlightAware
09:52PM 2.8590 102.3160 226° Southwest 329 379 14,400 -1,680 Descending FlightAware
09:53PM 2.8160 102.2730 225° Southwest 316 364 13,200 -1,620 Descending FlightAware
09:53PM 2.7810 102.2380 225° Southwest 300 345 12,400 -1,140 Descending FlightAware
09:54PM 2.7360 102.1920 226° Southwest 277 319 11,600 -1,020 Descending FlightAware
09:55PM 2.7020 102.1580 225° Southwest 259 298 10,900 -1,140 Descending FlightAware
09:55PM 2.6730 102.1180 234° Southwest 254 292 10,100 -1,140 Descending FlightAware
09:56PM 2.6550 102.0930 234° Southwest 251 289 9,700 -1,200 Descending FlightAware
09:56PM 2.6350 102.0630 236° Southwest 249 287 9,000 -1,320 Descending FlightAware
09:57PM 2.6160 102.0360 235° Southwest 247 284 8,400 -1,200 Descending FlightAware
09:57PM 2.5980 102.0090 236° Southwest 246 283 7,800 -1,080 Descending FlightAware
09:58PM 2.5900 101.9980 234° Southwest 243 280 7,500 -1,440 Descending FlightAware
09:58PM 2.5590 101.9530 235° Southwest 241 277 6,500 -1,140 Descending FlightAware
09:59PM 2.5490 101.9380 236° Southwest 225 259 6,300 -240 Descending FlightAware
09:59PM 2.5350 101.9160 238° Southwest 225 259 6,300 -1,260 Level FlightAware
10:00PM 2.5420 101.8390 275° West 200 230 4,000 -1,500 Descending FlightAware
10:01PM 2.5600 101.8210 315° West 193 222 3,500 -1,020 Descending FlightAware
10:01PM 2.5770 101.8090 325° Northwest 192 221 3,100 -1,020 Descending FlightAware
10:02PM 2.6000 101.7940 327° Northwest 190 219 2,600 -1,020 Descending FlightAware
10:02PM 2.6220 101.7790 326° Northwest 193 222 2,100 -1,020 Descending FlightAware
10:03PM 2.6420 101.7660 327° Northwest 181 208 1,700 -960 Descending FlightAware
10:03PM 2.6590 101.7540 325° Northwest 167 192 1,300 -600 Descending FlightAware
10:04PM 2.6750 101.7430 326° Northwest 162 186 1,200 -240 Descending FlightAware
10:06PM 2.7456 101.7099 335° Northwest  Level Estimated
10:07PM 2.7456 101.7099 236° Southwest  Level Estimated
10:08PM 2.7456 101.7099 236° Southwest  Level Estimated
10:09PM 2.7456 101.7099 236° Southwest  Level Estimated
10:10PM 2.7456 101.7099 236° Southwest  Level Estimated
10:11PM 2.7456 101.7099 236° Southwest  Level Estimated
10:12PM 2.7456 101.7099 236° Southwest  Level Estimated
10:13PM 2.7456 101.7099 236° Southwest  Level Estimated
10:14PM 2.7456 101.7099 236° Southwest  Level Estimated
10:15PM 2.7456 101.7099 236° Southwest  Level Estimated
10:16PM 2.7456 101.7099 236° Southwest  Level Estimated
10:17PM 2.7456 101.7099 236° Southwest  Level Estimated
10:18PM 2.7456 101.7099 236° Southwest  Level Estimated
10:19PM 2.7456 101.7099 236° Southwest  Level Estimated
10:20PM 2.7456 101.7099 236° Southwest  Level Estimated
10:21PM 2.7456 101.7099 236° Southwest  Level Estimated
10:22PM 2.7456 101.7099 236° Southwest  Level Estimated
10:23PM 2.7456 101.7099 236° Southwest  Level Estimated